sensor_id;sensor_type;location;lat;lon;timestamp;P1;durP1;ratioP1;P2;durP2;ratioP2
77061;SDS011;65989;51.686;5.138;2023-03-01T00:01:58;39.10;;;16.85;;
77061;SDS011;65989;51.686;5.138;2023-03-01T00:04:23;25.90;;;13.63;;
77061;SDS011;65989;51.686;5.138;2023-03-01T00:06:49;25.03;;;12.93;;
77061;SDS011;65989;51.686;5.138;2023-03-01T00:09:14;17.43;;;11.13;;
77061;SDS011;65989;51.686;5.138;2023-03-01T00:11:40;21.35;;;11.55;;
77061;SDS011;65989;51.686;5.138;2023-03-01T00:14:06;19.98;;;10.23;;
77061;SDS011;65989;51.686;5.138;2023-03-01T00:16:33;16.10;;;9.17;;
77061;SDS011;65989;51.686;5.138;2023-03-01T00:19:00;15.23;;;9.30;;
77061;SDS011;65989;51.686;5.138;2023-03-01T00:21:26;17.33;;;9.37;;
77061;SDS011;65989;51.686;5.138;2023-03-01T00:23:52;19.23;;;10.27;;
77061;SDS011;65989;51.686;5.138;2023-03-01T00:26:19;19.23;;;10.75;;
77061;SDS011;65989;51.686;5.138;2023-03-01T00:28:46;14.63;;;8.00;;
77061;SDS011;65989;51.686;5.138;2023-03-01T00:31:13;13.67;;;8.03;;
77061;SDS011;65989;51.686;5.138;2023-03-01T00:33:40;16.13;;;8.75;;
77061;SDS011;65989;51.686;5.138;2023-03-01T00:36:06;16.42;;;9.00;;
77061;SDS011;65989;51.686;5.138;2023-03-01T00:38:36;16.00;;;9.18;;
77061;SDS011;65989;51.686;5.138;2023-03-01T00:41:03;22.38;;;11.35;;
77061;SDS011;65989;51.686;5.138;2023-03-01T00:43:33;19.50;;;10.50;;
77061;SDS011;65989;51.686;5.138;2023-03-01T00:46:08;24.10;;;12.80;;
77061;SDS011;65989;51.686;5.138;2023-03-01T00:48:36;27.98;;;13.98;;
77061;SDS011;65989;51.686;5.138;2023-03-01T00:51:08;23.10;;;11.83;;
77061;SDS011;65989;51.686;5.138;2023-03-01T00:53:47;14.65;;;7.88;;
77061;SDS011;65989;51.686;5.138;2023-03-01T00:56:16;15.40;;;8.85;;
77061;SDS011;65989;51.686;5.138;2023-03-01T00:58:41;18.83;;;9.20;;
77061;SDS011;65989;51.686;5.138;2023-03-01T01:01:08;15.15;;;8.43;;
77061;SDS011;65989;51.686;5.138;2023-03-01T01:03:48;14.43;;;8.65;;
77061;SDS011;65989;51.686;5.138;2023-03-01T01:06:21;15.77;;;8.00;;
77061;SDS011;65989;51.686;5.138;2023-03-01T01:08:58;13.80;;;8.70;;
77061;SDS011;65989;51.686;5.138;2023-03-01T01:11:24;26.48;;;13.40;;
77061;SDS011;65989;51.686;5.138;2023-03-01T01:13:51;20.45;;;10.65;;
77061;SDS011;65989;51.686;5.138;2023-03-01T01:16:17;16.73;;;9.20;;
77061;SDS011;65989;51.686;5.138;2023-03-01T01:18:44;15.70;;;8.05;;
77061;SDS011;65989;51.686;5.138;2023-03-01T01:21:14;15.35;;;9.15;;
77061;SDS011;65989;51.686;5.138;2023-03-01T01:23:42;14.53;;;8.00;;
77061;SDS011;65989;51.686;5.138;2023-03-01T01:26:10;15.40;;;8.57;;
77061;SDS011;65989;51.686;5.138;2023-03-01T01:28:37;15.43;;;7.93;;
77061;SDS011;65989;51.686;5.138;2023-03-01T01:31:03;17.55;;;8.73;;
77061;SDS011;65989;51.686;5.138;2023-03-01T01:33:29;14.33;;;8.13;;
77061;SDS011;65989;51.686;5.138;2023-03-01T01:35:55;15.32;;;8.23;;
77061;SDS011;65989;51.686;5.138;2023-03-01T01:38:21;17.27;;;9.63;;
77061;SDS011;65989;51.686;5.138;2023-03-01T01:40:46;17.13;;;8.17;;
77061;SDS011;65989;51.686;5.138;2023-03-01T01:45:59;18.77;;;9.18;;
77061;SDS011;65989;51.686;5.138;2023-03-01T01:48:29;16.30;;;8.80;;
77061;SDS011;65989;51.686;5.138;2023-03-01T01:51:05;13.48;;;8.55;;
77061;SDS011;65989;51.686;5.138;2023-03-01T01:53:34;16.60;;;9.20;;
77061;SDS011;65989;51.686;5.138;2023-03-01T01:56:01;14.40;;;8.98;;
77061;SDS011;65989;51.686;5.138;2023-03-01T01:58:28;15.93;;;8.70;;
77061;SDS011;65989;51.686;5.138;2023-03-01T02:00:55;15.75;;;8.52;;
77061;SDS011;65989;51.686;5.138;2023-03-01T02:03:25;14.77;;;8.52;;
77061;SDS011;65989;51.686;5.138;2023-03-01T02:08:23;17.27;;;9.00;;
77061;SDS011;65989;51.686;5.138;2023-03-01T02:10:51;15.25;;;9.25;;
77061;SDS011;65989;51.686;5.138;2023-03-01T02:13:17;15.55;;;9.02;;
77061;SDS011;65989;51.686;5.138;2023-03-01T02:15:43;15.57;;;8.97;;
77061;SDS011;65989;51.686;5.138;2023-03-01T02:18:09;14.13;;;8.77;;
77061;SDS011;65989;51.686;5.138;2023-03-01T02:23:21;16.60;;;8.47;;
77061;SDS011;65989;51.686;5.138;2023-03-01T02:28:24;17.23;;;8.98;;
77061;SDS011;65989;51.686;5.138;2023-03-01T02:30:56;19.42;;;9.02;;
77061;SDS011;65989;51.686;5.138;2023-03-01T02:33:41;18.67;;;8.90;;
77061;SDS011;65989;51.686;5.138;2023-03-01T02:36:11;15.57;;;8.57;;
77061;SDS011;65989;51.686;5.138;2023-03-01T02:38:41;14.73;;;7.88;;
77061;SDS011;65989;51.686;5.138;2023-03-01T02:41:07;13.07;;;8.05;;
77061;SDS011;65989;51.686;5.138;2023-03-01T02:43:35;14.63;;;8.27;;
77061;SDS011;65989;51.686;5.138;2023-03-01T02:46:05;16.23;;;8.73;;
77061;SDS011;65989;51.686;5.138;2023-03-01T02:51:13;14.82;;;7.95;;
77061;SDS011;65989;51.686;5.138;2023-03-01T02:56:31;15.30;;;7.82;;
77061;SDS011;65989;51.686;5.138;2023-03-01T02:58:56;14.33;;;8.10;;
77061;SDS011;65989;51.686;5.138;2023-03-01T03:01:26;13.65;;;7.78;;
77061;SDS011;65989;51.686;5.138;2023-03-01T03:04:03;15.15;;;7.40;;
77061;SDS011;65989;51.686;5.138;2023-03-01T03:06:35;17.97;;;8.67;;
77061;SDS011;65989;51.686;5.138;2023-03-01T03:09:00;13.40;;;8.20;;
77061;SDS011;65989;51.686;5.138;2023-03-01T03:11:26;15.53;;;8.50;;
77061;SDS011;65989;51.686;5.138;2023-03-01T03:13:51;14.88;;;7.55;;
77061;SDS011;65989;51.686;5.138;2023-03-01T03:16:17;13.37;;;7.30;;
77061;SDS011;65989;51.686;5.138;2023-03-01T03:18:43;13.18;;;7.80;;
77061;SDS011;65989;51.686;5.138;2023-03-01T03:21:10;14.52;;;8.20;;
77061;SDS011;65989;51.686;5.138;2023-03-01T03:23:37;14.50;;;7.87;;
77061;SDS011;65989;51.686;5.138;2023-03-01T03:26:03;15.38;;;7.68;;
77061;SDS011;65989;51.686;5.138;2023-03-01T03:28:29;11.98;;;8.02;;
77061;SDS011;65989;51.686;5.138;2023-03-01T03:30:56;14.65;;;8.52;;
77061;SDS011;65989;51.686;5.138;2023-03-01T03:33:21;15.47;;;8.10;;
77061;SDS011;65989;51.686;5.138;2023-03-01T03:35:47;13.60;;;8.35;;
77061;SDS011;65989;51.686;5.138;2023-03-01T03:38:14;14.03;;;8.17;;
77061;SDS011;65989;51.686;5.138;2023-03-01T03:40:52;13.40;;;7.97;;
77061;SDS011;65989;51.686;5.138;2023-03-01T03:43:28;15.38;;;7.80;;
77061;SDS011;65989;51.686;5.138;2023-03-01T03:45:54;13.98;;;7.95;;
77061;SDS011;65989;51.686;5.138;2023-03-01T03:48:22;16.35;;;8.48;;
77061;SDS011;65989;51.686;5.138;2023-03-01T03:50:54;15.33;;;9.07;;
77061;SDS011;65989;51.686;5.138;2023-03-01T03:53:21;15.20;;;8.52;;
77061;SDS011;65989;51.686;5.138;2023-03-01T03:55:48;15.20;;;8.00;;
77061;SDS011;65989;51.686;5.138;2023-03-01T03:58:17;13.93;;;8.05;;
77061;SDS011;65989;51.686;5.138;2023-03-01T04:00:44;15.73;;;8.45;;
77061;SDS011;65989;51.686;5.138;2023-03-01T04:03:11;14.20;;;8.33;;
77061;SDS011;65989;51.686;5.138;2023-03-01T04:05:39;19.13;;;8.30;;
77061;SDS011;65989;51.686;5.138;2023-03-01T04:08:05;15.10;;;8.82;;
77061;SDS011;65989;51.686;5.138;2023-03-01T04:10:38;13.40;;;8.35;;
77061;SDS011;65989;51.686;5.138;2023-03-01T04:13:13;14.27;;;8.00;;
77061;SDS011;65989;51.686;5.138;2023-03-01T04:15:41;16.37;;;8.33;;
77061;SDS011;65989;51.686;5.138;2023-03-01T04:18:08;14.48;;;7.95;;
77061;SDS011;65989;51.686;5.138;2023-03-01T04:20:36;14.13;;;7.50;;
77061;SDS011;65989;51.686;5.138;2023-03-01T04:23:03;16.27;;;7.73;;
77061;SDS011;65989;51.686;5.138;2023-03-01T04:28:18;13.85;;;7.53;;
77061;SDS011;65989;51.686;5.138;2023-03-01T04:30:44;13.67;;;7.80;;
77061;SDS011;65989;51.686;5.138;2023-03-01T04:33:09;15.63;;;7.57;;
77061;SDS011;65989;51.686;5.138;2023-03-01T04:35:35;15.55;;;8.15;;
77061;SDS011;65989;51.686;5.138;2023-03-01T04:38:01;15.52;;;7.82;;
77061;SDS011;65989;51.686;5.138;2023-03-01T04:40:27;13.00;;;7.88;;
77061;SDS011;65989;51.686;5.138;2023-03-01T04:42:53;18.73;;;7.73;;
77061;SDS011;65989;51.686;5.138;2023-03-01T04:45:19;12.45;;;7.40;;
77061;SDS011;65989;51.686;5.138;2023-03-01T04:47:45;13.07;;;7.23;;
77061;SDS011;65989;51.686;5.138;2023-03-01T04:50:11;15.13;;;7.50;;
77061;SDS011;65989;51.686;5.138;2023-03-01T04:52:39;15.70;;;7.33;;
77061;SDS011;65989;51.686;5.138;2023-03-01T04:55:05;14.40;;;7.65;;
77061;SDS011;65989;51.686;5.138;2023-03-01T04:57:31;14.10;;;7.60;;
77061;SDS011;65989;51.686;5.138;2023-03-01T04:59:57;13.40;;;7.00;;
77061;SDS011;65989;51.686;5.138;2023-03-01T05:02:22;13.43;;;7.30;;
77061;SDS011;65989;51.686;5.138;2023-03-01T05:04:48;14.07;;;7.32;;
77061;SDS011;65989;51.686;5.138;2023-03-01T05:07:13;13.73;;;7.80;;
77061;SDS011;65989;51.686;5.138;2023-03-01T05:09:44;13.93;;;7.10;;
77061;SDS011;65989;51.686;5.138;2023-03-01T05:12:12;12.82;;;7.03;;
77061;SDS011;65989;51.686;5.138;2023-03-01T05:14:38;14.30;;;7.30;;
77061;SDS011;65989;51.686;5.138;2023-03-01T05:17:04;13.40;;;7.95;;
77061;SDS011;65989;51.686;5.138;2023-03-01T05:19:31;13.77;;;7.75;;
77061;SDS011;65989;51.686;5.138;2023-03-01T05:21:57;12.35;;;7.28;;
77061;SDS011;65989;51.686;5.138;2023-03-01T05:24:26;13.77;;;7.13;;
77061;SDS011;65989;51.686;5.138;2023-03-01T05:26:52;15.88;;;7.43;;
77061;SDS011;65989;51.686;5.138;2023-03-01T05:29:24;14.57;;;7.80;;
77061;SDS011;65989;51.686;5.138;2023-03-01T05:31:52;15.02;;;7.63;;
77061;SDS011;65989;51.686;5.138;2023-03-01T05:34:26;14.40;;;6.97;;
77061;SDS011;65989;51.686;5.138;2023-03-01T05:36:59;14.02;;;7.15;;
77061;SDS011;65989;51.686;5.138;2023-03-01T05:39:26;14.20;;;7.82;;
77061;SDS011;65989;51.686;5.138;2023-03-01T05:41:57;14.20;;;6.83;;
77061;SDS011;65989;51.686;5.138;2023-03-01T05:44:24;14.55;;;7.55;;
77061;SDS011;65989;51.686;5.138;2023-03-01T05:46:50;13.05;;;7.28;;
77061;SDS011;65989;51.686;5.138;2023-03-01T05:49:16;11.35;;;7.40;;
77061;SDS011;65989;51.686;5.138;2023-03-01T05:51:43;13.17;;;7.27;;
77061;SDS011;65989;51.686;5.138;2023-03-01T05:54:11;13.75;;;7.38;;
77061;SDS011;65989;51.686;5.138;2023-03-01T05:56:37;12.50;;;7.37;;
77061;SDS011;65989;51.686;5.138;2023-03-01T05:59:03;13.93;;;7.13;;
77061;SDS011;65989;51.686;5.138;2023-03-01T06:01:32;11.77;;;6.90;;
77061;SDS011;65989;51.686;5.138;2023-03-01T06:03:59;16.92;;;7.15;;
77061;SDS011;65989;51.686;5.138;2023-03-01T06:06:25;12.38;;;6.43;;
77061;SDS011;65989;51.686;5.138;2023-03-01T06:08:50;13.07;;;6.93;;
77061;SDS011;65989;51.686;5.138;2023-03-01T06:11:17;11.88;;;7.05;;
77061;SDS011;65989;51.686;5.138;2023-03-01T06:13:42;13.27;;;6.70;;
77061;SDS011;65989;51.686;5.138;2023-03-01T06:16:09;13.77;;;7.43;;
77061;SDS011;65989;51.686;5.138;2023-03-01T06:18:35;12.40;;;7.43;;
77061;SDS011;65989;51.686;5.138;2023-03-01T06:21:01;14.47;;;6.93;;
77061;SDS011;65989;51.686;5.138;2023-03-01T06:23:27;13.25;;;6.95;;
77061;SDS011;65989;51.686;5.138;2023-03-01T06:25:53;13.05;;;6.65;;
77061;SDS011;65989;51.686;5.138;2023-03-01T06:28:18;13.23;;;7.20;;
77061;SDS011;65989;51.686;5.138;2023-03-01T06:30:44;13.23;;;6.70;;
77061;SDS011;65989;51.686;5.138;2023-03-01T06:33:09;12.33;;;6.70;;
77061;SDS011;65989;51.686;5.138;2023-03-01T06:35:35;13.55;;;6.70;;
77061;SDS011;65989;51.686;5.138;2023-03-01T06:38:01;13.00;;;6.33;;
77061;SDS011;65989;51.686;5.138;2023-03-01T06:40:28;15.07;;;6.68;;
77061;SDS011;65989;51.686;5.138;2023-03-01T06:42:54;11.20;;;6.40;;
77061;SDS011;65989;51.686;5.138;2023-03-01T06:45:20;12.47;;;6.57;;
77061;SDS011;65989;51.686;5.138;2023-03-01T06:47:46;13.38;;;6.32;;
77061;SDS011;65989;51.686;5.138;2023-03-01T06:50:12;12.00;;;6.30;;
77061;SDS011;65989;51.686;5.138;2023-03-01T06:52:38;13.70;;;7.05;;
77061;SDS011;65989;51.686;5.138;2023-03-01T06:55:04;13.60;;;7.27;;
77061;SDS011;65989;51.686;5.138;2023-03-01T06:57:30;13.65;;;6.53;;
77061;SDS011;65989;51.686;5.138;2023-03-01T06:59:56;14.23;;;6.30;;
77061;SDS011;65989;51.686;5.138;2023-03-01T07:02:21;15.90;;;7.07;;
77061;SDS011;65989;51.686;5.138;2023-03-01T07:04:48;13.38;;;6.75;;
77061;SDS011;65989;51.686;5.138;2023-03-01T07:07:15;12.45;;;6.68;;
77061;SDS011;65989;51.686;5.138;2023-03-01T07:09:40;18.73;;;7.93;;
77061;SDS011;65989;51.686;5.138;2023-03-01T07:12:06;19.67;;;9.27;;
77061;SDS011;65989;51.686;5.138;2023-03-01T07:14:31;25.40;;;9.65;;
77061;SDS011;65989;51.686;5.138;2023-03-01T07:16:57;26.63;;;10.20;;
77061;SDS011;65989;51.686;5.138;2023-03-01T07:19:22;22.00;;;8.50;;
77061;SDS011;65989;51.686;5.138;2023-03-01T07:21:48;16.40;;;7.93;;
77061;SDS011;65989;51.686;5.138;2023-03-01T07:24:13;16.30;;;8.30;;
77061;SDS011;65989;51.686;5.138;2023-03-01T07:26:39;13.57;;;7.53;;
77061;SDS011;65989;51.686;5.138;2023-03-01T07:29:05;16.47;;;7.33;;
77061;SDS011;65989;51.686;5.138;2023-03-01T07:31:32;13.95;;;6.97;;
77061;SDS011;65989;51.686;5.138;2023-03-01T07:33:57;13.75;;;7.38;;
77061;SDS011;65989;51.686;5.138;2023-03-01T07:36:23;12.67;;;6.57;;
77061;SDS011;65989;51.686;5.138;2023-03-01T07:38:49;12.02;;;6.30;;
77061;SDS011;65989;51.686;5.138;2023-03-01T07:41:15;14.35;;;6.72;;
77061;SDS011;65989;51.686;5.138;2023-03-01T07:43:41;12.27;;;6.87;;
77061;SDS011;65989;51.686;5.138;2023-03-01T07:46:06;13.07;;;6.80;;
77061;SDS011;65989;51.686;5.138;2023-03-01T07:48:32;12.30;;;5.90;;
77061;SDS011;65989;51.686;5.138;2023-03-01T07:50:58;16.58;;;7.18;;
77061;SDS011;65989;51.686;5.138;2023-03-01T07:53:24;13.75;;;6.78;;
77061;SDS011;65989;51.686;5.138;2023-03-01T07:55:59;14.82;;;6.78;;
77061;SDS011;65989;51.686;5.138;2023-03-01T07:58:27;13.53;;;6.67;;
77061;SDS011;65989;51.686;5.138;2023-03-01T08:00:53;14.57;;;7.60;;
77061;SDS011;65989;51.686;5.138;2023-03-01T08:03:18;14.17;;;7.20;;
77061;SDS011;65989;51.686;5.138;2023-03-01T08:05:44;12.77;;;6.27;;
77061;SDS011;65989;51.686;5.138;2023-03-01T08:08:09;11.70;;;6.33;;
77061;SDS011;65989;51.686;5.138;2023-03-01T08:10:35;13.73;;;7.00;;
77061;SDS011;65989;51.686;5.138;2023-03-01T08:13:01;12.52;;;7.10;;
77061;SDS011;65989;51.686;5.138;2023-03-01T08:15:26;20.03;;;6.57;;
77061;SDS011;65989;51.686;5.138;2023-03-01T08:17:52;18.03;;;7.00;;
77061;SDS011;65989;51.686;5.138;2023-03-01T08:20:17;15.97;;;7.20;;
77061;SDS011;65989;51.686;5.138;2023-03-01T08:22:42;16.67;;;7.30;;
77061;SDS011;65989;51.686;5.138;2023-03-01T08:25:08;14.00;;;7.60;;
77061;SDS011;65989;51.686;5.138;2023-03-01T08:27:33;13.88;;;6.32;;
77061;SDS011;65989;51.686;5.138;2023-03-01T08:29:59;13.77;;;7.07;;
77061;SDS011;65989;51.686;5.138;2023-03-01T08:32:24;18.97;;;7.10;;
77061;SDS011;65989;51.686;5.138;2023-03-01T08:34:50;11.03;;;5.77;;
77061;SDS011;65989;51.686;5.138;2023-03-01T08:37:15;12.17;;;6.23;;
77061;SDS011;65989;51.686;5.138;2023-03-01T08:39:40;13.97;;;6.60;;
77061;SDS011;65989;51.686;5.138;2023-03-01T08:42:06;14.02;;;7.15;;
77061;SDS011;65989;51.686;5.138;2023-03-01T08:44:31;15.57;;;6.87;;
77061;SDS011;65989;51.686;5.138;2023-03-01T08:46:56;12.13;;;6.43;;
77061;SDS011;65989;51.686;5.138;2023-03-01T08:49:23;15.05;;;7.55;;
77061;SDS011;65989;51.686;5.138;2023-03-01T08:51:49;17.73;;;8.07;;
77061;SDS011;65989;51.686;5.138;2023-03-01T08:54:16;15.23;;;6.87;;
77061;SDS011;65989;51.686;5.138;2023-03-01T08:56:43;13.32;;;6.43;;
77061;SDS011;65989;51.686;5.138;2023-03-01T08:59:09;13.57;;;6.68;;
77061;SDS011;65989;51.686;5.138;2023-03-01T09:01:36;9.07;;;5.00;;
77061;SDS011;65989;51.686;5.138;2023-03-01T09:04:02;12.13;;;6.50;;
77061;SDS011;65989;51.686;5.138;2023-03-01T09:06:29;14.20;;;6.55;;
77061;SDS011;65989;51.686;5.138;2023-03-01T09:08:56;11.73;;;5.93;;
77061;SDS011;65989;51.686;5.138;2023-03-01T09:11:21;10.63;;;6.20;;
77061;SDS011;65989;51.686;5.138;2023-03-01T09:13:47;11.53;;;6.33;;
77061;SDS011;65989;51.686;5.138;2023-03-01T09:16:14;13.80;;;7.00;;
77061;SDS011;65989;51.686;5.138;2023-03-01T09:18:42;12.68;;;6.32;;
77061;SDS011;65989;51.686;5.138;2023-03-01T09:21:10;12.30;;;6.43;;
77061;SDS011;65989;51.686;5.138;2023-03-01T09:23:38;12.48;;;6.80;;
77061;SDS011;65989;51.686;5.138;2023-03-01T09:26:05;15.63;;;7.43;;
77061;SDS011;65989;51.686;5.138;2023-03-01T09:28:31;16.48;;;7.13;;
77061;SDS011;65989;51.686;5.138;2023-03-01T09:30:57;10.90;;;5.87;;
77061;SDS011;65989;51.686;5.138;2023-03-01T09:33:24;11.70;;;5.82;;
77061;SDS011;65989;51.686;5.138;2023-03-01T09:35:49;12.53;;;6.00;;
77061;SDS011;65989;51.686;5.138;2023-03-01T09:38:15;9.05;;;5.00;;
77061;SDS011;65989;51.686;5.138;2023-03-01T09:40:43;12.47;;;5.73;;
77061;SDS011;65989;51.686;5.138;2023-03-01T09:43:15;12.20;;;5.93;;
77061;SDS011;65989;51.686;5.138;2023-03-01T09:45:50;12.00;;;5.60;;
77061;SDS011;65989;51.686;5.138;2023-03-01T09:48:20;12.85;;;6.10;;
77061;SDS011;65989;51.686;5.138;2023-03-01T09:50:49;10.73;;;5.80;;
77061;SDS011;65989;51.686;5.138;2023-03-01T09:53:17;12.15;;;5.45;;
77061;SDS011;65989;51.686;5.138;2023-03-01T09:58:28;14.20;;;6.40;;
77061;SDS011;65989;51.686;5.138;2023-03-01T10:01:23;12.32;;;5.90;;
77061;SDS011;65989;51.686;5.138;2023-03-01T10:06:28;9.85;;;5.75;;
77061;SDS011;65989;51.686;5.138;2023-03-01T10:09:13;12.63;;;6.00;;
77061;SDS011;65989;51.686;5.138;2023-03-01T10:11:41;8.55;;;5.40;;
77061;SDS011;65989;51.686;5.138;2023-03-01T10:22:42;8.93;;;5.47;;
77061;SDS011;65989;51.686;5.138;2023-03-01T10:25:13;10.35;;;5.57;;
77061;SDS011;65989;51.686;5.138;2023-03-01T10:30:13;9.93;;;5.22;;
77061;SDS011;65989;51.686;5.138;2023-03-01T10:32:45;10.77;;;5.72;;
77061;SDS011;65989;51.686;5.138;2023-03-01T10:40:32;9.00;;;5.27;;
77061;SDS011;65989;51.686;5.138;2023-03-01T10:42:59;9.48;;;4.93;;
77061;SDS011;65989;51.686;5.138;2023-03-01T10:45:37;10.88;;;5.47;;
77061;SDS011;65989;51.686;5.138;2023-03-01T10:50:32;12.23;;;5.80;;
77061;SDS011;65989;51.686;5.138;2023-03-01T10:52:59;8.87;;;4.83;;
77061;SDS011;65989;51.686;5.138;2023-03-01T10:58:18;10.23;;;5.32;;
77061;SDS011;65989;51.686;5.138;2023-03-01T11:00:46;11.23;;;5.53;;
77061;SDS011;65989;51.686;5.138;2023-03-01T11:03:17;10.77;;;5.38;;
77061;SDS011;65989;51.686;5.138;2023-03-01T11:08:47;10.73;;;6.05;;
77061;SDS011;65989;51.686;5.138;2023-03-01T11:11:25;11.25;;;5.82;;
77061;SDS011;65989;51.686;5.138;2023-03-01T11:16:40;10.23;;;5.85;;
77061;SDS011;65989;51.686;5.138;2023-03-01T11:21:34;10.73;;;5.47;;
77061;SDS011;65989;51.686;5.138;2023-03-01T11:24:04;10.48;;;5.30;;
77061;SDS011;65989;51.686;5.138;2023-03-01T11:26:36;8.93;;;4.95;;
77061;SDS011;65989;51.686;5.138;2023-03-01T11:29:07;10.18;;;5.80;;
77061;SDS011;65989;51.686;5.138;2023-03-01T11:31:42;14.60;;;5.83;;
77061;SDS011;65989;51.686;5.138;2023-03-01T11:34:17;12.65;;;5.45;;
77061;SDS011;65989;51.686;5.138;2023-03-01T11:36:52;8.43;;;4.90;;
77061;SDS011;65989;51.686;5.138;2023-03-01T11:39:42;10.77;;;6.03;;
77061;SDS011;65989;51.686;5.138;2023-03-01T11:42:13;9.48;;;4.93;;
77061;SDS011;65989;51.686;5.138;2023-03-01T11:44:51;12.10;;;5.90;;
77061;SDS011;65989;51.686;5.138;2023-03-01T11:57:46;12.97;;;6.80;;
77061;SDS011;65989;51.686;5.138;2023-03-01T12:05:50;12.80;;;6.20;;
77061;SDS011;65989;51.686;5.138;2023-03-01T12:08:38;10.90;;;5.72;;
77061;SDS011;65989;51.686;5.138;2023-03-01T12:17:02;14.57;;;6.20;;
77061;SDS011;65989;51.686;5.138;2023-03-01T12:22:32;12.43;;;6.80;;
77061;SDS011;65989;51.686;5.138;2023-03-01T12:30:26;11.43;;;6.37;;
77061;SDS011;65989;51.686;5.138;2023-03-01T12:33:07;11.88;;;7.20;;
77061;SDS011;65989;51.686;5.138;2023-03-01T12:38:42;9.88;;;5.72;;
77061;SDS011;65989;51.686;5.138;2023-03-01T12:44:04;10.57;;;5.35;;
77061;SDS011;65989;51.686;5.138;2023-03-01T12:47:23;10.52;;;5.70;;
77061;SDS011;65989;51.686;5.138;2023-03-01T12:49:41;11.47;;;5.80;;
77061;SDS011;65989;51.686;5.138;2023-03-01T13:00:38;12.40;;;6.35;;
77061;SDS011;65989;51.686;5.138;2023-03-01T13:03:25;16.97;;;6.53;;
77061;SDS011;65989;51.686;5.138;2023-03-01T13:06:15;13.68;;;6.15;;
77061;SDS011;65989;51.686;5.138;2023-03-01T13:11:21;11.17;;;5.77;;
77061;SDS011;65989;51.686;5.138;2023-03-01T13:13:48;11.55;;;5.85;;
77061;SDS011;65989;51.686;5.138;2023-03-01T13:21:57;9.90;;;5.90;;
77061;SDS011;65989;51.686;5.138;2023-03-01T13:24:35;11.15;;;5.95;;
77061;SDS011;65989;51.686;5.138;2023-03-01T13:32:21;11.35;;;6.70;;
77061;SDS011;65989;51.686;5.138;2023-03-01T13:34:50;9.73;;;4.83;;
77061;SDS011;65989;51.686;5.138;2023-03-01T13:37:21;12.20;;;5.90;;
77061;SDS011;65989;51.686;5.138;2023-03-01T13:39:52;9.90;;;5.80;;
77061;SDS011;65989;51.686;5.138;2023-03-01T13:42:32;10.80;;;5.47;;
77061;SDS011;65989;51.686;5.138;2023-03-01T13:47:57;11.30;;;5.60;;
77061;SDS011;65989;51.686;5.138;2023-03-01T13:50:25;8.65;;;4.93;;
77061;SDS011;65989;51.686;5.138;2023-03-01T13:52:55;9.40;;;4.47;;
77061;SDS011;65989;51.686;5.138;2023-03-01T13:55:26;11.25;;;5.78;;
77061;SDS011;65989;51.686;5.138;2023-03-01T13:58:02;12.82;;;5.93;;
77061;SDS011;65989;51.686;5.138;2023-03-01T14:00:38;9.97;;;5.47;;
77061;SDS011;65989;51.686;5.138;2023-03-01T14:05:33;8.77;;;5.32;;
77061;SDS011;65989;51.686;5.138;2023-03-01T14:07:59;8.85;;;4.75;;
77061;SDS011;65989;51.686;5.138;2023-03-01T14:10:30;11.13;;;4.90;;
77061;SDS011;65989;51.686;5.138;2023-03-01T14:13:10;11.68;;;5.35;;
77061;SDS011;65989;51.686;5.138;2023-03-01T14:15:58;9.60;;;4.60;;
77061;SDS011;65989;51.686;5.138;2023-03-01T14:18:29;9.03;;;4.70;;
77061;SDS011;65989;51.686;5.138;2023-03-01T14:21:13;10.77;;;4.82;;
77061;SDS011;65989;51.686;5.138;2023-03-01T14:23:40;8.15;;;4.00;;
77061;SDS011;65989;51.686;5.138;2023-03-01T14:26:07;9.30;;;4.72;;
77061;SDS011;65989;51.686;5.138;2023-03-01T14:28:34;10.27;;;5.25;;
77061;SDS011;65989;51.686;5.138;2023-03-01T14:31:05;9.33;;;5.07;;
77061;SDS011;65989;51.686;5.138;2023-03-01T14:34:00;9.50;;;4.82;;
77061;SDS011;65989;51.686;5.138;2023-03-01T14:36:27;15.25;;;4.88;;
77061;SDS011;65989;51.686;5.138;2023-03-01T14:38:54;9.80;;;5.35;;
77061;SDS011;65989;51.686;5.138;2023-03-01T14:41:24;13.73;;;4.70;;
77061;SDS011;65989;51.686;5.138;2023-03-01T14:43:55;10.45;;;5.10;;
77061;SDS011;65989;51.686;5.138;2023-03-01T14:48:52;9.13;;;5.17;;
77061;SDS011;65989;51.686;5.138;2023-03-01T14:51:26;11.23;;;4.50;;
77061;SDS011;65989;51.686;5.138;2023-03-01T14:53:51;9.15;;;4.93;;
77061;SDS011;65989;51.686;5.138;2023-03-01T14:56:17;8.80;;;4.73;;
77061;SDS011;65989;51.686;5.138;2023-03-01T14:58:43;10.73;;;5.00;;
77061;SDS011;65989;51.686;5.138;2023-03-01T15:01:10;9.00;;;4.70;;
77061;SDS011;65989;51.686;5.138;2023-03-01T15:03:40;13.27;;;5.40;;
77061;SDS011;65989;51.686;5.138;2023-03-01T15:06:08;8.57;;;4.60;;
77061;SDS011;65989;51.686;5.138;2023-03-01T15:08:35;10.65;;;5.20;;
77061;SDS011;65989;51.686;5.138;2023-03-01T15:11:03;11.45;;;5.63;;
77061;SDS011;65989;51.686;5.138;2023-03-01T15:13:32;8.50;;;5.10;;
77061;SDS011;65989;51.686;5.138;2023-03-01T15:16:32;8.35;;;4.40;;
77061;SDS011;65989;51.686;5.138;2023-03-01T15:18:53;9.35;;;4.45;;
77061;SDS011;65989;51.686;5.138;2023-03-01T15:21:22;10.55;;;4.97;;
77061;SDS011;65989;51.686;5.138;2023-03-01T15:23:51;9.20;;;4.53;;
77061;SDS011;65989;51.686;5.138;2023-03-01T15:26:23;8.73;;;4.50;;
77061;SDS011;65989;51.686;5.138;2023-03-01T15:28:53;8.38;;;4.88;;
77061;SDS011;65989;51.686;5.138;2023-03-01T15:31:27;8.25;;;4.43;;
77061;SDS011;65989;51.686;5.138;2023-03-01T15:34:40;12.40;;;5.70;;
77061;SDS011;65989;51.686;5.138;2023-03-01T15:36:52;10.30;;;5.55;;
77061;SDS011;65989;51.686;5.138;2023-03-01T15:45:20;9.00;;;5.38;;
77061;SDS011;65989;51.686;5.138;2023-03-01T15:47:52;9.15;;;4.75;;
77061;SDS011;65989;51.686;5.138;2023-03-01T15:50:24;9.68;;;4.82;;
77061;SDS011;65989;51.686;5.138;2023-03-01T15:52:52;10.37;;;4.47;;
77061;SDS011;65989;51.686;5.138;2023-03-01T15:55:19;10.10;;;5.38;;
77061;SDS011;65989;51.686;5.138;2023-03-01T15:57:57;8.90;;;4.60;;
77061;SDS011;65989;51.686;5.138;2023-03-01T16:00:27;9.32;;;5.00;;
77061;SDS011;65989;51.686;5.138;2023-03-01T16:02:54;12.50;;;5.13;;
77061;SDS011;65989;51.686;5.138;2023-03-01T16:05:21;9.00;;;4.90;;
77061;SDS011;65989;51.686;5.138;2023-03-01T16:07:49;14.32;;;5.38;;
77061;SDS011;65989;51.686;5.138;2023-03-01T16:10:15;13.82;;;5.47;;
77061;SDS011;65989;51.686;5.138;2023-03-01T16:12:41;13.73;;;5.27;;
77061;SDS011;65989;51.686;5.138;2023-03-01T16:15:17;12.03;;;5.57;;
77061;SDS011;65989;51.686;5.138;2023-03-01T16:17:43;13.93;;;6.05;;
77061;SDS011;65989;51.686;5.138;2023-03-01T16:20:11;9.45;;;5.10;;
77061;SDS011;65989;51.686;5.138;2023-03-01T16:22:37;10.65;;;5.03;;
77061;SDS011;65989;51.686;5.138;2023-03-01T16:25:02;9.23;;;5.07;;
77061;SDS011;65989;51.686;5.138;2023-03-01T16:27:28;9.47;;;4.63;;
77061;SDS011;65989;51.686;5.138;2023-03-01T16:29:53;32.10;;;11.30;;
77061;SDS011;65989;51.686;5.138;2023-03-01T16:32:19;45.63;;;12.43;;
77061;SDS011;65989;51.686;5.138;2023-03-01T16:34:44;19.60;;;8.93;;
77061;SDS011;65989;51.686;5.138;2023-03-01T16:37:12;32.72;;;11.85;;
77061;SDS011;65989;51.686;5.138;2023-03-01T16:39:38;34.47;;;12.17;;
77061;SDS011;65989;51.686;5.138;2023-03-01T16:42:03;26.70;;;10.47;;
77061;SDS011;65989;51.686;5.138;2023-03-01T16:44:29;27.37;;;11.10;;
77061;SDS011;65989;51.686;5.138;2023-03-01T16:46:54;19.67;;;8.00;;
77061;SDS011;65989;51.686;5.138;2023-03-01T16:49:20;18.27;;;7.53;;
77061;SDS011;65989;51.686;5.138;2023-03-01T16:51:45;19.38;;;8.00;;